Time;durP1;ratioP1;P1;durP2;ratioP2;P2;SDS_P1;SDS_P2;PMS_P1;PMS_P2;Temp;Humidity;BMP_temperature;BMP_pressure;BME280_temperature;BME280_humidity;BME280_pressure;Samples;Min_cycle;Max_cycle;Signal;HPM_P1;HPM_P2
2021/11/13 00:00:02;;;;;;;0.40;0.40;;;;;;;7.85;76.54;100931.78;101503;1316;95959;-77
2021/11/13 00:02:52;;;;;;;0.50;0.40;;;;;;;7.81;76.59;100931.09;101346;1312;167677;-77
2021/11/13 00:05:20;;;;;;;0.50;0.50;;;;;;;7.70;77.04;100926.57;101337;1316;109395;-77
2021/11/13 00:07:48;;;;;;;0.50;0.40;;;;;;;7.66;76.91;100919.16;101463;1317;108913;-77
2021/11/13 00:10:17;;;;;;;0.50;0.50;;;;;;;7.66;77.07;100922.18;101418;1316;96385;-77
2021/11/13 00:12:45;;;;;;;0.50;0.50;;;;;;;7.62;77.23;100917.95;101256;1316;95552;-76
2021/11/13 00:15:19;;;;;;;0.50;0.50;;;;;;;7.60;77.14;100920.09;101526;1315;108446;-76
2021/11/13 00:17:50;;;;;;;0.50;0.50;;;;;;;7.56;77.12;100915.69;101456;1316;109716;-76
2021/11/13 00:20:19;;;;;;;0.50;0.50;;;;;;;7.58;77.37;100919.39;101616;1316;95275;-77
2021/11/13 00:22:46;;;;;;;0.40;0.40;;;;;;;7.56;77.12;100924.00;101309;1318;95210;-77
2021/11/13 00:25:15;;;;;;;0.40;0.40;;;;;;;7.51;77.31;100925.96;101465;1319;109621;-78
2021/11/13 00:27:43;;;;;;;0.50;0.40;;;;;;;7.48;77.68;100924.39;101249;1316;109953;-76
2021/11/13 00:30:12;;;;;;;0.50;0.40;;;;;;;7.52;77.74;100926.31;101263;1319;95729;-77
2021/11/13 00:32:41;;;;;;;0.50;0.50;;;;;;;7.63;77.54;100926.42;101552;1316;95266;-78
2021/11/13 00:35:10;;;;;;;0.50;0.40;;;;;;;7.65;77.27;100917.05;101505;1316;108760;-78
2021/11/13 00:37:38;;;;;;;0.50;0.40;;;;;;;7.65;77.44;100914.39;101487;1315;108807;-77
2021/11/13 00:40:07;;;;;;;0.50;0.40;;;;;;;7.68;77.02;100909.96;101476;1316;95368;-77
2021/11/13 00:42:35;;;;;;;0.50;0.50;;;;;;;7.81;77.51;100912.02;101538;1316;95386;-77
2021/11/13 00:45:04;;;;;;;0.50;0.40;;;;;;;7.97;76.83;100916.14;101419;1315;108094;-77
2021/11/13 00:47:32;;;;;;;0.50;0.40;;;;;;;8.05;76.13;100919.63;101502;1316;109879;-78
2021/11/13 00:50:00;;;;;;;0.50;0.50;;;;;;;7.98;76.05;100922.86;101492;1316;95284;-78
2021/11/13 00:52:28;;;;;;;0.50;0.50;;;;;;;7.86;76.51;100915.85;101530;1315;95702;-77
2021/11/13 00:54:56;;;;;;;0.50;0.50;;;;;;;7.82;76.74;100912.17;101386;1316;108491;-77
2021/11/13 00:57:24;;;;;;;0.50;0.50;;;;;;;7.75;76.96;100905.32;101517;1315;108942;-77
2021/11/13 00:59:52;;;;;;;0.60;0.60;;;;;;;7.78;77.02;100909.19;101496;1315;95512;-78
2021/11/13 01:02:19;;;;;;;0.50;0.50;;;;;;;7.81;76.86;100913.06;101299;1318;95258;-77
2021/11/13 01:04:49;;;;;;;0.50;0.50;;;;;;;7.77;77.13;100913.45;101337;1316;105818;-78
2021/11/13 01:07:16;;;;;;;0.50;0.50;;;;;;;7.71;77.44;100916.66;101499;1316;109918;-77
2021/11/13 01:09:44;;;;;;;0.50;0.50;;;;;;;7.77;77.34;100915.39;101462;1315;95745;-77
2021/11/13 01:12:12;;;;;;;0.50;0.50;;;;;;;7.86;77.10;100913.20;101440;1315;95581;-77
2021/11/13 01:14:40;;;;;;;0.50;0.40;;;;;;;7.96;76.90;100910.66;101313;1317;108422;-76
2021/11/13 01:17:11;;;;;;;0.50;0.50;;;;;;;7.98;76.63;100902.34;101393;1316;109014;-78
2021/11/13 01:19:45;;;;;;;0.40;0.40;;;;;;;7.92;76.67;100897.96;101555;1316;95270;-77
2021/11/13 01:22:14;;;;;;;0.50;0.40;;;;;;;7.79;76.94;100895.41;101518;1316;95272;-77
2021/11/13 01:24:43;;;;;;;0.50;0.40;;;;;;;7.77;77.15;100897.36;101474;1315;108836;-77
2021/11/13 01:27:11;;;;;;;0.50;0.40;;;;;;;7.74;77.52;100888.36;101406;1316;110016;-77
2021/11/13 01:29:39;;;;;;;0.50;0.50;;;;;;;7.69;77.64;100877.08;101469;1315;95317;-77
2021/11/13 01:32:07;;;;;;;0.50;0.40;;;;;;;7.73;77.63;100871.58;101606;1315;95265;-77
2021/11/13 01:34:39;;;;;;;0.50;0.50;;;;;;;7.78;77.54;100870.66;101685;1316;108382;-77
2021/11/13 01:37:08;;;;;;;0.50;0.50;;;;;;;7.82;77.62;100864.27;101578;1315;109825;-78
2021/11/13 01:39:37;;;;;;;0.50;0.50;;;;;;;7.86;77.27;100862.65;101344;1319;96307;-76
2021/11/13 01:42:05;;;;;;;0.50;0.50;;;;;;;7.81;77.26;100860.73;101521;1315;95345;-77
2021/11/13 01:44:33;;;;;;;0.50;0.50;;;;;;;7.75;77.26;100864.33;101473;1315;107964;-77
2021/11/13 01:47:05;;;;;;;0.50;0.50;;;;;;;7.70;76.78;100861.70;101563;1316;107712;-77
2021/11/13 01:49:37;;;;;;;0.50;0.50;;;;;;;7.76;76.90;100857.95;101478;1315;95298;-78
2021/11/13 01:52:11;;;;;;;0.50;0.50;;;;;;;7.83;76.78;100858.77;101485;1315;95410;-77
2021/11/13 01:54:40;;;;;;;0.40;0.40;;;;;;;7.85;76.44;100863.54;101473;1315;107894;-78
2021/11/13 01:57:12;;;;;;;0.50;0.50;;;;;;;7.85;76.32;100865.30;101628;1315;109858;-78
2021/11/13 01:59:41;;;;;;;0.50;0.50;;;;;;;7.88;76.58;100864.23;101310;1315;95179;-77
2021/11/13 02:02:08;;;;;;;0.50;0.40;;;;;;;7.94;76.07;100859.23;101538;1315;96033;-77
2021/11/13 02:04:36;;;;;;;0.50;0.40;;;;;;;7.96;76.00;100863.81;101520;1312;107965;-77
2021/11/13 02:07:04;;;;;;;0.60;0.60;;;;;;;7.87;75.74;100858.40;101446;1315;108809;-77
2021/11/13 02:09:32;;;;;;;0.50;0.50;;;;;;;7.75;76.22;100856.36;101577;1315;95691;-77
2021/11/13 02:12:00;;;;;;;0.50;0.50;;;;;;;7.65;76.49;100852.73;101478;1315;95735;-76
2021/11/13 02:14:29;;;;;;;0.50;0.50;;;;;;;7.68;76.64;100850.40;101446;1315;108657;-76
2021/11/13 02:16:57;;;;;;;0.50;0.50;;;;;;;7.69;76.41;100842.80;101425;1316;109761;-77
2021/11/13 02:19:25;;;;;;;0.50;0.50;;;;;;;7.67;76.36;100840.88;101519;1315;95570;-77
2021/11/13 02:22:00;;;;;;;0.50;0.40;;;;;;;7.63;76.65;100844.95;101499;1316;95710;-79
2021/11/13 02:24:28;;;;;;;0.50;0.40;;;;;;;7.57;76.89;100844.30;101531;1315;107948;-77
2021/11/13 02:26:56;;;;;;;0.50;0.50;;;;;;;7.49;77.03;100841.34;101233;1317;109688;-78
2021/11/13 02:29:24;;;;;;;0.50;0.50;;;;;;;7.48;76.95;100841.01;101491;1315;95257;-76
2021/11/13 02:31:54;;;;;;;0.50;0.40;;;;;;;7.51;76.86;100839.91;101460;1315;95238;-77
2021/11/13 02:34:24;;;;;;;0.50;0.40;;;;;;;7.53;76.95;100846.09;101536;1316;109120;-77
2021/11/13 02:36:53;;;;;;;0.50;0.50;;;;;;;7.49;77.04;100845.23;101434;1316;109686;-77
2021/11/13 02:39:21;;;;;;;0.50;0.40;;;;;;;7.47;77.10;100845.59;101580;1315;95246;-78
2021/11/13 02:41:50;;;;;;;0.50;0.40;;;;;;;7.50;77.22;100848.75;101369;1316;95729;-78
2021/11/13 02:44:18;;;;;;;0.50;0.40;;;;;;;7.58;76.66;100847.83;101479;1315;107779;-76
2021/11/13 02:46:46;;;;;;;0.50;0.40;;;;;;;7.61;76.85;100846.05;101250;1319;108793;-78
2021/11/13 02:49:15;;;;;;;0.50;0.40;;;;;;;7.55;77.03;100841.66;101330;1318;95636;-78
2021/11/13 02:51:44;;;;;;;0.50;0.50;;;;;;;7.50;77.31;100838.52;101371;1316;95567;-77
2021/11/13 02:54:12;;;;;;;0.50;0.50;;;;;;;7.48;77.37;100835.52;101460;1315;107874;-77
2021/11/13 02:56:40;;;;;;;0.50;0.50;;;;;;;7.48;77.15;100835.69;101429;1316;108923;-76
2021/11/13 02:59:08;;;;;;;0.50;0.50;;;;;;;7.52;77.36;100829.13;101402;1316;95310;-77
2021/11/13 03:01:35;;;;;;;0.50;0.50;;;;;;;7.49;77.15;100830.55;101422;1317;95541;-77
2021/11/13 03:04:03;;;;;;;0.50;0.40;;;;;;;7.46;77.21;100828.98;101360;1316;108399;-77
2021/11/13 03:06:31;;;;;;;0.50;0.50;;;;;;;7.45;77.22;100831.11;101321;1316;107834;-76
2021/11/13 03:08:59;;;;;;;0.40;0.40;;;;;;;7.46;77.25;100833.08;101411;1316;95297;-77
2021/11/13 03:11:28;;;;;;;0.50;0.50;;;;;;;7.48;77.13;100827.92;101635;1316;95820;-77
2021/11/13 03:13:56;;;;;;;0.50;0.50;;;;;;;7.48;77.30;100824.05;101305;1316;107881;-77
2021/11/13 03:16:24;;;;;;;0.50;0.50;;;;;;;7.45;77.43;100820.17;101166;1314;109830;-77
2021/11/13 03:18:51;;;;;;;0.50;0.40;;;;;;;7.57;77.23;100819.91;101382;1316;95192;-76
2021/11/13 03:21:19;;;;;;;0.50;0.50;;;;;;;7.58;76.75;100826.79;101435;1316;95282;-76
2021/11/13 03:23:48;;;;;;;0.50;0.50;;;;;;;7.49;77.18;100828.61;101266;1319;109110;-77
2021/11/13 03:26:21;;;;;;;0.50;0.50;;;;;;;7.52;76.85;100831.42;101426;1316;108775;-77
2021/11/13 03:28:57;;;;;;;0.50;0.40;;;;;;;7.59;76.75;100827.67;101228;1318;96534;-77
2021/11/13 03:31:28;;;;;;;0.40;0.40;;;;;;;7.62;76.58;100825.70;101397;1316;95986;-78
2021/11/13 03:33:57;;;;;;;0.40;0.40;;;;;;;7.61;76.62;100828.53;101370;1316;109067;-78
2021/11/13 03:36:25;;;;;;;0.50;0.50;;;;;;;7.68;76.67;100827.61;101396;1317;107639;-76
2021/11/13 03:38:53;;;;;;;0.50;0.50;;;;;;;7.70;76.41;100832.54;101245;1318;95362;-76
2021/11/13 03:41:22;;;;;;;0.50;0.50;;;;;;;7.67;75.92;100832.56;101390;1316;95231;-76
2021/11/13 03:43:51;;;;;;;0.50;0.40;;;;;;;7.63;75.88;100826.76;101273;1316;108648;-77
2021/11/13 03:46:18;;;;;;;0.50;0.50;;;;;;;7.60;75.67;100826.61;101481;1316;109259;-76
2021/11/13 03:48:50;;;;;;;0.50;0.50;;;;;;;7.51;75.79;100825.80;101530;1316;95725;-77
2021/11/13 03:51:19;;;;;;;0.50;0.50;;;;;;;7.48;75.69;100824.20;101496;1315;95278;-77
2021/11/13 03:53:48;;;;;;;0.40;0.40;;;;;;;7.52;75.83;100817.11;101229;1318;107877;-76
2021/11/13 03:56:16;;;;;;;0.50;0.40;;;;;;;7.57;75.69;100814.96;101472;1315;108749;-77
2021/11/13 03:58:44;;;;;;;0.50;0.40;;;;;;;7.61;75.59;100809.63;101490;1315;95656;-77
2021/11/13 04:01:12;;;;;;;0.50;0.50;;;;;;;7.61;76.11;100803.63;101495;1316;95305;-77
2021/11/13 04:03:40;;;;;;;0.50;0.50;;;;;;;7.59;76.39;100805.59;101351;1318;108824;-77
2021/11/13 04:06:08;;;;;;;0.50;0.50;;;;;;;7.50;76.37;100805.47;101498;1315;109803;-77
2021/11/13 04:08:36;;;;;;;0.40;0.40;;;;;;;7.47;76.87;100801.08;101452;1311;95282;-77
2021/11/13 04:11:04;;;;;;;0.50;0.50;;;;;;;7.45;77.04;100801.45;101501;1316;96571;-77
2021/11/13 04:13:31;;;;;;;0.50;0.50;;;;;;;7.47;76.99;100793.12;101536;1316;107994;-77
2021/11/13 04:15:59;;;;;;;0.50;0.50;;;;;;;7.46;76.84;100799.66;101506;1315;108352;-77
2021/11/13 04:18:32;;;;;;;0.50;0.50;;;;;;;7.44;76.84;100799.86;101510;1315;95726;-77
2021/11/13 04:21:01;;;;;;;0.40;0.40;;;;;;;7.44;76.99;100795.61;101309;1316;95304;-77
2021/11/13 04:23:30;;;;;;;0.40;0.40;;;;;;;7.46;76.90;100790.48;101298;1316;107884;-76
2021/11/13 04:25:58;;;;;;;0.50;0.50;;;;;;;7.47;76.61;100790.30;101553;1315;109801;-76
2021/11/13 04:28:25;;;;;;;0.60;0.60;;;;;;;7.33;76.73;100793.57;101414;1316;95265;-77
2021/11/13 04:30:53;;;;;;;0.50;0.50;;;;;;;7.31;76.96;100793.59;101516;1316;95229;-77
2021/11/13 04:33:22;;;;;;;0.50;0.50;;;;;;;7.32;77.02;100790.92;101343;1319;109099;-74
2021/11/13 04:38:30;;;;;;;0.50;0.40;;;;;;;7.33;77.14;100782.45;101524;1315;95323;-77
2021/11/13 04:41:00;;;;;;;0.50;0.50;;;;;;;7.37;77.38;100783.13;101737;1315;95194;-77
2021/11/13 04:43:28;;;;;;;0.50;0.50;;;;;;;7.42;76.81;100782.91;101452;1315;108557;-77
2021/11/13 04:45:56;;;;;;;0.50;0.40;;;;;;;7.39;76.99;100781.52;101360;1317;109824;-75
2021/11/13 04:48:24;;;;;;;0.50;0.40;;;;;;;7.41;76.97;100793.35;101512;1316;95250;-77
2021/11/13 04:50:52;;;;;;;0.50;0.40;;;;;;;7.44;76.93;100797.55;101215;1318;95274;-77
2021/11/13 04:53:20;;;;;;;0.50;0.50;;;;;;;7.38;76.62;100798.14;101525;1315;107851;-77
2021/11/13 04:55:48;;;;;;;0.50;0.50;;;;;;;7.28;76.89;100798.36;101450;1315;108389;-77
2021/11/13 04:58:16;;;;;;;0.60;0.60;;;;;;;7.23;76.99;100794.88;101558;1314;95261;-77
2021/11/13 05:00:43;;;;;;;0.50;0.50;;;;;;;7.22;77.24;100786.40;101509;1315;95402;-77
2021/11/13 05:03:11;;;;;;;0.50;0.50;;;;;;;7.27;76.95;100779.66;101507;1315;109257;-75
2021/11/13 05:05:39;;;;;;;0.50;0.50;;;;;;;7.33;76.63;100782.98;101452;1315;111225;-77
2021/11/13 05:08:08;;;;;;;0.50;0.40;;;;;;;7.39;76.44;100780.99;101340;1318;95368;-78
2021/11/13 05:10:38;;;;;;;0.50;0.50;;;;;;;7.38;76.18;100783.48;101223;1319;95183;-78
2021/11/13 05:13:06;;;;;;;0.50;0.50;;;;;;;7.36;76.38;100787.91;101294;1316;109365;-77
2021/11/13 05:15:35;;;;;;;0.50;0.50;;;;;;;7.45;75.91;100797.02;101317;1316;107958;-79
2021/11/13 05:18:03;;;;;;;0.50;0.50;;;;;;;7.51;75.86;100798.75;101355;1316;96568;-77
2021/11/13 05:20:31;;;;;;;0.50;0.50;;;;;;;7.51;75.66;100803.86;101573;1313;95813;-77
2021/11/13 05:22:59;;;;;;;0.50;0.50;;;;;;;7.53;75.59;100807.20;101303;1316;107881;-76
2021/11/13 05:25:27;;;;;;;0.50;0.50;;;;;;;7.50;75.81;100801.74;101363;1315;109926;-77
2021/11/13 05:27:55;;;;;;;0.50;0.50;;;;;;;7.46;75.90;100805.84;101362;1314;95404;-76
2021/11/13 05:30:23;;;;;;;0.50;0.50;;;;;;;7.42;75.90;100805.17;101325;1315;95368;-76
2021/11/13 05:32:54;;;;;;;0.50;0.50;;;;;;;7.35;75.86;100801.16;101649;1312;107720;-76
2021/11/13 05:35:22;;;;;;;0.50;0.50;;;;;;;7.33;76.13;100796.23;101626;1316;108837;-77
2021/11/13 05:37:51;;;;;;;0.50;0.40;;;;;;;7.36;75.97;100793.92;101385;1318;95257;-77
2021/11/13 05:40:19;;;;;;;0.50;0.40;;;;;;;7.37;76.06;100795.15;101527;1316;95261;-77
2021/11/13 05:42:52;;;;;;;0.50;0.50;;;;;;;7.35;75.98;100796.21;101537;1315;107953;-78
2021/11/13 05:45:20;;;;;;;0.50;0.50;;;;;;;7.34;76.30;100789.67;101467;1315;108861;-77
2021/11/13 05:47:49;;;;;;;0.50;0.50;;;;;;;7.38;76.43;100793.54;101505;1315;95168;-76
2021/11/13 05:50:17;;;;;;;0.50;0.50;;;;;;;7.46;76.09;100801.77;101461;1315;96534;-77
2021/11/13 05:52:47;;;;;;;0.50;0.50;;;;;;;7.50;76.06;100799.11;101446;1315;109412;-77
2021/11/13 05:55:15;;;;;;;0.50;0.50;;;;;;;7.56;75.69;100795.17;101304;1317;107422;-77
2021/11/13 05:57:44;;;;;;;0.50;0.50;;;;;;;7.52;75.86;100792.02;101533;1313;95272;-77
2021/11/13 06:00:15;;;;;;;0.50;0.50;;;;;;;7.47;75.63;100788.70;101475;1315;95660;-76
2021/11/13 06:02:42;;;;;;;0.50;0.50;;;;;;;7.47;76.08;100791.01;101668;1316;109445;-77
2021/11/13 06:05:11;;;;;;;0.50;0.50;;;;;;;7.44;76.03;100793.86;101323;1315;108933;-77
2021/11/13 06:07:39;;;;;;;0.50;0.50;;;;;;;7.39;76.09;100795.83;101363;1318;95624;-78
2021/11/13 06:10:08;;;;;;;0.50;0.50;;;;;;;7.37;76.17;100794.42;101308;1318;95921;-77
2021/11/13 06:12:36;;;;;;;0.50;0.40;;;;;;;7.41;76.06;100794.41;101491;1315;107837;-77
2021/11/13 06:15:05;;;;;;;0.40;0.40;;;;;;;7.43;75.97;100795.27;101583;1315;109702;-78
2021/11/13 06:17:33;;;;;;;0.50;0.50;;;;;;;7.38;76.03;100793.53;101473;1315;95238;-76
2021/11/13 06:20:01;;;;;;;0.50;0.50;;;;;;;7.39;76.00;100795.31;101526;1315;96620;-79
2021/11/13 06:22:29;;;;;;;0.50;0.50;;;;;;;7.38;76.02;100790.19;101322;1318;108916;-77
2021/11/13 06:24:57;;;;;;;0.50;0.50;;;;;;;7.37;75.77;100793.73;101480;1315;108499;-77
2021/11/13 06:27:25;;;;;;;0.50;0.50;;;;;;;7.46;75.76;100825.65;101552;1315;95320;-77
2021/11/13 06:29:52;;;;;;;0.50;0.50;;;;;;;7.53;75.49;100835.13;101237;1317;95311;-78
2021/11/13 06:32:20;;;;;;;0.50;0.50;;;;;;;7.58;75.42;100828.20;101293;1318;108308;-76
2021/11/13 06:34:48;;;;;;;0.50;0.50;;;;;;;7.68;75.16;100832.38;101477;1315;109899;-78
2021/11/13 06:37:16;;;;;;;0.50;0.50;;;;;;;7.76;74.81;100837.81;101379;1317;95687;-76
2021/11/13 06:39:44;;;;;;;0.50;0.50;;;;;;;7.71;74.43;100837.48;101193;1320;95822;-77
2021/11/13 06:42:12;;;;;;;0.50;0.50;;;;;;;7.70;74.52;100839.61;101452;1315;107998;-78
2021/11/13 06:44:40;;;;;;;0.50;0.40;;;;;;;7.73;74.38;100842.05;101539;1315;109611;-78
2021/11/13 06:47:08;;;;;;;0.50;0.50;;;;;;;7.65;74.48;100843.17;101495;1318;95706;-76
2021/11/13 06:49:36;;;;;;;0.50;0.50;;;;;;;7.62;74.61;100843.73;101515;1315;95314;-77
2021/11/13 06:52:08;;;;;;;0.60;0.60;;;;;;;7.64;74.67;100844.08;101477;1317;108113;-77
2021/11/13 06:54:36;;;;;;;0.50;0.50;;;;;;;7.68;74.79;100846.16;101492;1315;107199;-78
2021/11/13 06:57:05;;;;;;;0.50;0.50;;;;;;;7.73;74.61;100846.65;101383;1316;95298;-78
2021/11/13 06:59:33;;;;;;;0.50;0.50;;;;;;;7.79;74.62;100854.02;101564;1315;95306;-77
2021/11/13 07:02:01;;;;;;;0.50;0.50;;;;;;;7.83;74.21;100861.43;101504;1315;107916;-78
2021/11/13 07:04:29;;;;;;;0.50;0.50;;;;;;;7.82;74.25;100861.09;101519;1312;109841;-77
2021/11/13 07:06:57;;;;;;;0.50;0.50;;;;;;;7.82;74.36;100849.23;101562;1315;95384;-77
2021/11/13 07:09:24;;;;;;;0.50;0.50;;;;;;;7.85;74.16;100844.09;101429;1318;96598;-77
2021/11/13 07:11:52;;;;;;;0.50;0.50;;;;;;;7.83;74.41;100834.21;101234;1315;109583;-77
2021/11/13 07:14:20;;;;;;;0.50;0.50;;;;;;;7.86;74.29;100816.50;101404;1316;108972;-76
2021/11/13 07:16:48;;;;;;;0.50;0.50;;;;;;;7.88;74.42;100814.71;101247;1321;96110;-77
2021/11/13 07:19:16;;;;;;;0.50;0.50;;;;;;;7.92;74.60;100815.39;101315;1321;96275;-76
2021/11/13 07:21:43;;;;;;;0.50;0.50;;;;;;;7.92;74.41;100816.63;101528;1316;108871;-77
2021/11/13 07:24:11;;;;;;;0.50;0.50;;;;;;;7.90;74.30;100820.02;101531;1315;109793;-78
2021/11/13 07:26:42;;;;;;;0.50;0.50;;;;;;;7.87;74.76;100821.09;101537;1315;95176;-77
2021/11/13 07:29:12;;;;;;;0.50;0.50;;;;;;;7.80;74.70;100827.50;101535;1315;95369;-78
2021/11/13 07:31:40;;;;;;;0.50;0.50;;;;;;;7.74;74.94;100827.20;101406;1317;108806;-77
2021/11/13 07:34:08;;;;;;;0.40;0.40;;;;;;;7.80;74.95;100829.11;101498;1315;108631;-77
2021/11/13 07:36:36;;;;;;;0.50;0.40;;;;;;;7.88;75.06;100823.02;101546;1315;95590;-78
2021/11/13 07:39:04;;;;;;;0.50;0.50;;;;;;;7.95;74.47;100824.75;101383;1316;95864;-76
2021/11/13 07:41:32;;;;;;;0.50;0.50;;;;;;;7.97;74.32;100823.65;101269;1318;110064;-78
2021/11/13 07:44:04;;;;;;;0.50;0.50;;;;;;;7.93;74.41;100819.27;101409;1315;109664;-77
2021/11/13 07:46:32;;;;;;;0.50;0.50;;;;;;;7.96;74.53;100814.64;101422;1316;95307;-79
2021/11/13 07:48:59;;;;;;;0.50;0.50;;;;;;;8.02;74.36;100814.60;101495;1315;96252;-78
2021/11/13 07:51:27;;;;;;;0.50;0.50;;;;;;;8.12;74.21;100807.43;101320;1318;106485;-78
2021/11/13 07:53:55;;;;;;;0.50;0.50;;;;;;;8.18;73.86;100801.35;101536;1315;108872;-77
2021/11/13 07:56:23;;;;;;;0.50;0.50;;;;;;;8.17;73.81;100796.77;101246;1320;95773;-77
2021/11/13 07:58:50;;;;;;;0.50;0.40;;;;;;;8.15;73.59;100796.79;101364;1315;96148;-77
2021/11/13 08:01:18;;;;;;;0.50;0.50;;;;;;;8.07;74.03;100796.52;101545;1315;107959;-78
2021/11/13 08:03:46;;;;;;;0.50;0.50;;;;;;;8.09;73.86;100792.96;101214;1318;172589;-77
2021/11/13 08:06:14;;;;;;;0.50;0.50;;;;;;;8.13;73.89;100790.10;101363;1316;96221;-76
2021/11/13 08:08:42;;;;;;;0.50;0.40;;;;;;;8.19;73.57;100790.73;101481;1315;95294;-77
2021/11/13 08:11:09;;;;;;;0.50;0.50;;;;;;;8.30;73.40;100784.25;101341;1318;108669;-77
2021/11/13 08:13:39;;;;;;;0.50;0.50;;;;;;;8.37;73.39;100777.10;101333;1318;108959;-77
2021/11/13 08:16:08;;;;;;;0.40;0.40;;;;;;;8.36;73.02;100777.29;101420;1316;95492;-77
2021/11/13 08:18:36;;;;;;;0.50;0.40;;;;;;;8.33;72.97;100774.31;101556;1315;95761;-78
2021/11/13 08:21:04;;;;;;;0.50;0.40;;;;;;;8.39;72.81;100778.15;101532;1315;107940;-77
2021/11/13 08:23:32;;;;;;;0.50;0.40;;;;;;;8.40;72.46;100775.13;101297;1318;110274;-77
2021/11/13 08:26:00;;;;;;;0.50;0.50;;;;;;;8.39;72.53;100781.33;101580;1315;95377;-78
2021/11/13 08:28:29;;;;;;;0.50;0.50;;;;;;;8.38;72.51;100780.98;101624;1315;95758;-78
2021/11/13 08:30:57;;;;;;;0.50;0.50;;;;;;;8.40;72.90;100778.32;101524;1316;107652;-78
2021/11/13 08:33:28;;;;;;;0.50;0.40;;;;;;;8.46;72.22;100775.08;101370;1316;109774;-78
2021/11/13 08:35:56;;;;;;;0.40;0.40;;;;;;;8.48;72.44;100775.41;101544;1313;95252;-78
2021/11/13 08:38:24;;;;;;;0.50;0.40;;;;;;;8.45;72.22;100779.33;101364;1318;96552;-78
2021/11/13 08:40:56;;;;;;;0.50;0.40;;;;;;;8.49;72.23;100780.54;101381;1315;110021;-76
2021/11/13 08:43:24;;;;;;;0.50;0.40;;;;;;;8.53;72.23;100773.23;101342;1318;110398;-77
2021/11/13 08:45:52;;;;;;;0.50;0.40;;;;;;;8.56;72.20;100773.91;101495;1316;95483;-77
2021/11/13 08:48:21;;;;;;;0.50;0.50;;;;;;;8.52;72.25;100770.23;101335;1315;95809;-77
2021/11/13 08:50:49;;;;;;;0.50;0.40;;;;;;;8.53;72.18;100778.20;101592;1312;109032;-78
2021/11/13 08:53:17;;;;;;;0.50;0.50;;;;;;;8.50;71.97;100787.41;101565;1313;110949;-77
2021/11/13 08:55:45;;;;;;;0.50;0.50;;;;;;;8.47;72.45;100789.40;101276;1321;95253;-77
2021/11/13 08:58:13;;;;;;;0.40;0.40;;;;;;;8.51;72.33;100788.48;101483;1316;95508;-76
2021/11/13 09:00:49;;;;;;;0.60;0.60;;;;;;;8.55;71.90;100788.27;101489;1313;108953;-78
2021/11/13 09:03:40;;;;;;;0.50;0.40;;;;;;;8.54;72.19;100790.20;101532;1316;108837;-76
2021/11/13 09:06:12;;;;;;;0.50;0.40;;;;;;;8.58;72.23;100792.11;101648;1315;96703;-78
2021/11/13 09:08:40;;;;;;;0.40;0.40;;;;;;;8.64;71.78;100788.14;101428;1318;95770;-77
2021/11/13 09:11:09;;;;;;;0.50;0.40;;;;;;;8.60;71.72;100781.12;101359;1318;108182;-77
2021/11/13 09:13:38;;;;;;;0.50;0.40;;;;;;;8.56;71.67;100777.80;101651;1315;108466;-79
2021/11/13 09:16:08;;;;;;;0.50;0.40;;;;;;;8.53;71.73;100776.59;102098;1315;95695;-77
2021/11/13 09:18:39;;;;;;;0.40;0.40;;;;;;;8.52;71.83;100764.41;101790;1316;95411;-77
2021/11/13 09:21:07;;;;;;;0.50;0.40;;;;;;;8.54;71.85;100735.34;101750;1315;107761;-76
2021/11/13 09:23:36;;;;;;;0.50;0.40;;;;;;;8.57;71.84;100739.73;101431;1321;109762;-77
2021/11/13 09:26:06;;;;;;;0.50;0.50;;;;;;;8.59;71.50;100750.86;101355;1315;95586;-76
2021/11/13 09:28:36;;;;;;;0.50;0.40;;;;;;;8.70;71.36;100753.20;101486;1318;95249;-76
2021/11/13 09:31:04;;;;;;;0.50;0.50;;;;;;;8.77;71.22;100750.28;101465;1315;107966;-78
2021/11/13 09:33:33;;;;;;;0.50;0.40;;;;;;;8.86;71.08;100745.91;101641;1315;106508;-78
2021/11/13 09:36:02;;;;;;;0.40;0.40;;;;;;;8.85;70.53;100738.48;101606;1316;95214;-79
2021/11/13 09:38:33;;;;;;;0.50;0.40;;;;;;;8.81;70.55;100741.90;101512;1317;96760;-77
2021/11/13 09:41:05;;;;;;;0.50;0.50;;;;;;;8.80;70.79;100732.89;101378;1316;108767;-77
2021/11/13 09:43:35;;;;;;;0.50;0.50;;;;;;;8.83;70.58;100734.80;101517;1316;109404;-77
2021/11/13 09:46:05;;;;;;;0.50;0.50;;;;;;;8.90;70.70;100733.27;101186;1316;96266;-77
2021/11/13 09:48:34;;;;;;;0.50;0.40;;;;;;;9.03;70.19;100732.23;101556;1315;95226;-77
2021/11/13 09:51:03;;;;;;;0.50;0.40;;;;;;;9.09;69.76;100729.65;101526;1317;109001;-77
2021/11/13 09:53:32;;;;;;;0.50;0.40;;;;;;;9.13;70.05;100728.52;101529;1314;110071;-76
2021/11/13 09:56:00;;;;;;;0.50;0.40;;;;;;;9.23;69.32;100730.85;101374;1315;95752;-77
2021/11/13 09:58:29;;;;;;;0.40;0.40;;;;;;;9.28;69.31;100727.95;101338;1319;95362;-77
2021/11/13 10:00:59;;;;;;;0.40;0.40;;;;;;;9.41;69.00;100735.71;101461;1319;107953;-76
2021/11/13 10:03:27;;;;;;;0.50;0.50;;;;;;;9.40;68.31;100742.63;101544;1315;109893;-77
2021/11/13 10:06:01;;;;;;;0.40;0.40;;;;;;;9.39;68.89;100741.60;101314;1317;95786;-77
2021/11/13 10:08:29;;;;;;;0.40;0.40;;;;;;;9.47;68.28;100739.51;101743;1315;95357;-78
2021/11/13 10:11:14;;;;;;;0.40;0.40;;;;;;;9.54;68.24;100738.33;101368;1316;106853;-78
2021/11/13 10:13:44;;;;;;;0.40;0.40;;;;;;;9.65;67.78;100734.08;101633;1315;108908;-76
2021/11/13 10:16:17;;;;;;;0.50;0.40;;;;;;;9.65;67.45;100724.14;101565;1315;95198;-78
2021/11/13 10:18:53;;;;;;;0.50;0.40;;;;;;;9.75;67.59;100722.91;101466;1317;97200;-77
2021/11/13 10:21:23;;;;;;;0.40;0.30;;;;;;;9.76;66.53;100722.71;101502;1318;109073;-76
2021/11/13 10:24:14;;;;;;;0.40;0.40;;;;;;;9.65;66.85;100720.25;101422;1315;108904;-77
2021/11/13 10:26:46;;;;;;;0.40;0.40;;;;;;;9.63;67.03;100716.73;101519;1315;96049;-76
2021/11/13 10:29:22;;;;;;;0.40;0.40;;;;;;;9.62;67.18;100715.33;101480;1315;95275;-77
2021/11/13 10:31:58;;;;;;;0.50;0.50;;;;;;;9.60;66.85;100718.20;101553;1315;109204;-77
2021/11/13 10:34:47;;;;;;;0.40;0.40;;;;;;;9.60;67.06;100721.75;101348;1315;106969;-77
2021/11/13 10:37:18;;;;;;;0.50;0.40;;;;;;;9.58;67.15;100723.20;101371;1319;96222;-77
2021/11/13 10:39:48;;;;;;;0.40;0.30;;;;;;;9.52;67.02;100722.06;101636;1318;95234;-77
2021/11/13 10:42:22;;;;;;;0.40;0.40;;;;;;;9.55;67.22;100717.76;101796;1315;107853;-78
2021/11/13 10:44:52;;;;;;;0.40;0.30;;;;;;;9.61;67.14;100715.70;101452;1317;109853;-77
2021/11/13 10:47:33;;;;;;;0.40;0.40;;;;;;;9.64;66.62;100715.66;101384;1318;95676;-77
2021/11/13 10:50:21;;;;;;;0.40;0.40;;;;;;;9.62;66.43;100718.53;101482;1315;95717;-76
2021/11/13 10:52:57;;;;;;;0.40;0.40;;;;;;;9.60;66.34;100713.60;101594;1315;107899;-78
2021/11/13 10:55:25;;;;;;;0.40;0.40;;;;;;;9.55;66.41;100717.93;101632;1315;109298;-77
2021/11/13 10:58:28;;;;;;;0.50;0.40;;;;;;;9.59;66.64;100715.04;101524;1315;96212;-77
2021/11/13 11:00:58;;;;;;;0.50;0.50;;;;;;;9.74;66.60;100714.24;101470;1316;95457;-77
2021/11/13 11:03:30;;;;;;;0.40;0.40;;;;;;;9.76;66.06;100706.23;101668;1315;108824;-77
2021/11/13 11:05:58;;;;;;;0.40;0.30;;;;;;;9.85;66.15;100701.62;101570;1316;109051;-77
2021/11/13 11:08:34;;;;;;;0.40;0.30;;;;;;;9.89;65.77;100701.91;101400;1316;95274;-77
2021/11/13 11:11:34;;;;;;;0.40;0.30;;;;;;;9.98;65.97;100697.13;101586;1315;95843;-77
2021/11/13 11:14:04;;;;;;;0.40;0.40;;;;;;;9.94;64.79;100696.14;101451;1317;107880;-77
2021/11/13 11:16:35;;;;;;;0.40;0.30;;;;;;;9.89;65.12;100691.09;101608;1315;111053;-77
2021/11/13 11:19:05;;;;;;;0.40;0.30;;;;;;;9.85;65.46;100689.20;101710;1315;95823;-76
2021/11/13 11:21:36;;;;;;;0.40;0.30;;;;;;;9.84;65.28;100693.48;101476;1316;95707;-77
2021/11/13 11:24:23;;;;;;;0.40;0.30;;;;;;;9.91;65.52;100695.67;101458;1319;107898;-77
2021/11/13 11:27:06;;;;;;;0.40;0.30;;;;;;;9.92;65.54;100691.04;101295;1319;108802;-77
2021/11/13 11:29:45;;;;;;;0.40;0.30;;;;;;;9.88;65.33;100696.25;101494;1317;95706;-77
2021/11/13 11:32:15;;;;;;;0.40;0.30;;;;;;;9.90;65.61;100695.32;101560;1315;97181;-77
2021/11/13 11:34:44;;;;;;;0.40;0.30;;;;;;;9.88;64.75;100701.21;101504;1314;108263;-77